sensor_id;sensor_type;location;lat;lon;timestamp;P1;durP1;ratioP1;P2;durP2;ratioP2
12654;SDS011;6392;44.644;11.448;2024-01-30T00:00:32;29.33;;;15.10;;
12654;SDS011;6392;44.644;11.448;2024-01-30T00:02:59;28.87;;;15.63;;
12654;SDS011;6392;44.644;11.448;2024-01-30T00:05:26;33.00;;;14.37;;
12654;SDS011;6392;44.644;11.448;2024-01-30T00:07:55;27.13;;;14.70;;
12654;SDS011;6392;44.644;11.448;2024-01-30T00:10:22;31.27;;;16.07;;
12654;SDS011;6392;44.644;11.448;2024-01-30T00:12:49;26.30;;;14.60;;
12654;SDS011;6392;44.644;11.448;2024-01-30T00:15:16;29.90;;;15.53;;
12654;SDS011;6392;44.644;11.448;2024-01-30T00:17:43;32.03;;;15.93;;
12654;SDS011;6392;44.644;11.448;2024-01-30T00:20:10;29.30;;;15.70;;
12654;SDS011;6392;44.644;11.448;2024-01-30T00:22:37;27.43;;;15.50;;
12654;SDS011;6392;44.644;11.448;2024-01-30T00:25:06;29.80;;;16.17;;
12654;SDS011;6392;44.644;11.448;2024-01-30T00:27:34;25.67;;;15.17;;
12654;SDS011;6392;44.644;11.448;2024-01-30T00:30:01;40.97;;;17.30;;
12654;SDS011;6392;44.644;11.448;2024-01-30T00:32:30;30.37;;;16.13;;
12654;SDS011;6392;44.644;11.448;2024-01-30T00:34:57;34.17;;;16.70;;
12654;SDS011;6392;44.644;11.448;2024-01-30T00:37:24;28.83;;;15.30;;
12654;SDS011;6392;44.644;11.448;2024-01-30T00:39:51;34.43;;;16.60;;
12654;SDS011;6392;44.644;11.448;2024-01-30T00:42:20;35.17;;;16.23;;
12654;SDS011;6392;44.644;11.448;2024-01-30T00:44:48;40.10;;;16.87;;
12654;SDS011;6392;44.644;11.448;2024-01-30T00:47:15;34.10;;;16.43;;
12654;SDS011;6392;44.644;11.448;2024-01-30T00:49:43;26.80;;;15.07;;
12654;SDS011;6392;44.644;11.448;2024-01-30T00:52:10;29.90;;;15.30;;
12654;SDS011;6392;44.644;11.448;2024-01-30T00:54:37;30.13;;;16.00;;
12654;SDS011;6392;44.644;11.448;2024-01-30T00:57:04;32.77;;;16.13;;
12654;SDS011;6392;44.644;11.448;2024-01-30T00:59:33;29.30;;;16.50;;
12654;SDS011;6392;44.644;11.448;2024-01-30T01:02:00;27.73;;;14.47;;
12654;SDS011;6392;44.644;11.448;2024-01-30T01:04:27;30.67;;;16.90;;
12654;SDS011;6392;44.644;11.448;2024-01-30T01:06:54;25.00;;;15.10;;
12654;SDS011;6392;44.644;11.448;2024-01-30T01:09:21;30.30;;;15.57;;
12654;SDS011;6392;44.644;11.448;2024-01-30T01:11:48;27.97;;;16.50;;
12654;SDS011;6392;44.644;11.448;2024-01-30T01:14:15;33.30;;;15.93;;
12654;SDS011;6392;44.644;11.448;2024-01-30T01:16:44;30.13;;;15.67;;
12654;SDS011;6392;44.644;11.448;2024-01-30T01:19:11;31.00;;;15.87;;
12654;SDS011;6392;44.644;11.448;2024-01-30T01:21:38;35.37;;;15.50;;
12654;SDS011;6392;44.644;11.448;2024-01-30T01:24:06;33.53;;;15.67;;
12654;SDS011;6392;44.644;11.448;2024-01-30T01:26:33;33.40;;;15.07;;
12654;SDS011;6392;44.644;11.448;2024-01-30T01:29:00;29.67;;;15.33;;
12654;SDS011;6392;44.644;11.448;2024-01-30T01:31:29;28.23;;;16.07;;
12654;SDS011;6392;44.644;11.448;2024-01-30T01:33:58;24.10;;;13.57;;
12654;SDS011;6392;44.644;11.448;2024-01-30T01:36:25;24.17;;;14.27;;
12654;SDS011;6392;44.644;11.448;2024-01-30T01:38:52;23.23;;;14.27;;
12654;SDS011;6392;44.644;11.448;2024-01-30T01:41:19;27.43;;;13.77;;
12654;SDS011;6392;44.644;11.448;2024-01-30T01:43:46;29.70;;;13.47;;
12654;SDS011;6392;44.644;11.448;2024-01-30T01:46:13;22.63;;;13.53;;
12654;SDS011;6392;44.644;11.448;2024-01-30T01:48:40;28.10;;;12.97;;
12654;SDS011;6392;44.644;11.448;2024-01-30T01:51:09;28.93;;;13.67;;
12654;SDS011;6392;44.644;11.448;2024-01-30T01:53:37;28.37;;;14.10;;
12654;SDS011;6392;44.644;11.448;2024-01-30T01:56:04;27.20;;;12.60;;
12654;SDS011;6392;44.644;11.448;2024-01-30T01:58:32;20.33;;;11.80;;
12654;SDS011;6392;44.644;11.448;2024-01-30T02:00:59;24.17;;;14.23;;
12654;SDS011;6392;44.644;11.448;2024-01-30T02:03:26;28.43;;;14.30;;
12654;SDS011;6392;44.644;11.448;2024-01-30T02:05:53;22.50;;;12.93;;
12654;SDS011;6392;44.644;11.448;2024-01-30T02:08:24;26.03;;;14.70;;
12654;SDS011;6392;44.644;11.448;2024-01-30T02:10:51;21.07;;;13.20;;
12654;SDS011;6392;44.644;11.448;2024-01-30T02:13:18;23.83;;;13.30;;
12654;SDS011;6392;44.644;11.448;2024-01-30T02:15:48;22.77;;;13.70;;
12654;SDS011;6392;44.644;11.448;2024-01-30T02:18:16;23.87;;;13.70;;
12654;SDS011;6392;44.644;11.448;2024-01-30T02:20:43;29.37;;;15.43;;
12654;SDS011;6392;44.644;11.448;2024-01-30T02:23:12;34.67;;;14.90;;
12654;SDS011;6392;44.644;11.448;2024-01-30T02:25:42;26.30;;;14.30;;
12654;SDS011;6392;44.644;11.448;2024-01-30T02:28:10;27.87;;;15.60;;
12654;SDS011;6392;44.644;11.448;2024-01-30T02:30:38;29.80;;;15.37;;
12654;SDS011;6392;44.644;11.448;2024-01-30T02:33:05;27.30;;;15.33;;
12654;SDS011;6392;44.644;11.448;2024-01-30T02:35:32;27.33;;;14.30;;
12654;SDS011;6392;44.644;11.448;2024-01-30T02:38:00;24.57;;;14.67;;
12654;SDS011;6392;44.644;11.448;2024-01-30T02:40:28;29.17;;;15.60;;
12654;SDS011;6392;44.644;11.448;2024-01-30T02:42:55;26.57;;;14.67;;
12654;SDS011;6392;44.644;11.448;2024-01-30T02:45:22;29.63;;;14.73;;
12654;SDS011;6392;44.644;11.448;2024-01-30T02:47:49;25.43;;;14.17;;
12654;SDS011;6392;44.644;11.448;2024-01-30T02:50:16;27.27;;;15.00;;
12654;SDS011;6392;44.644;11.448;2024-01-30T02:52:44;29.30;;;15.53;;
12654;SDS011;6392;44.644;11.448;2024-01-30T02:55:11;31.13;;;15.20;;
12654;SDS011;6392;44.644;11.448;2024-01-30T02:57:39;27.30;;;16.23;;
12654;SDS011;6392;44.644;11.448;2024-01-30T03:00:07;25.80;;;14.87;;
12654;SDS011;6392;44.644;11.448;2024-01-30T03:02:35;32.07;;;14.63;;
12654;SDS011;6392;44.644;11.448;2024-01-30T03:05:02;30.50;;;15.60;;
12654;SDS011;6392;44.644;11.448;2024-01-30T03:07:29;28.00;;;15.00;;
12654;SDS011;6392;44.644;11.448;2024-01-30T03:09:57;30.50;;;16.33;;
12654;SDS011;6392;44.644;11.448;2024-01-30T03:12:24;32.47;;;14.83;;
12654;SDS011;6392;44.644;11.448;2024-01-30T03:14:52;30.53;;;15.43;;
12654;SDS011;6392;44.644;11.448;2024-01-30T03:17:19;28.37;;;15.23;;
12654;SDS011;6392;44.644;11.448;2024-01-30T03:19:46;26.67;;;14.93;;
12654;SDS011;6392;44.644;11.448;2024-01-30T03:22:13;32.17;;;14.63;;
12654;SDS011;6392;44.644;11.448;2024-01-30T03:24:40;27.00;;;14.57;;
12654;SDS011;6392;44.644;11.448;2024-01-30T03:27:07;26.60;;;13.53;;
12654;SDS011;6392;44.644;11.448;2024-01-30T03:29:34;26.43;;;14.60;;
12654;SDS011;6392;44.644;11.448;2024-01-30T03:32:03;29.10;;;14.50;;
12654;SDS011;6392;44.644;11.448;2024-01-30T03:34:31;30.40;;;15.57;;
12654;SDS011;6392;44.644;11.448;2024-01-30T03:36:58;24.67;;;14.00;;
12654;SDS011;6392;44.644;11.448;2024-01-30T03:39:25;24.37;;;14.27;;
12654;SDS011;6392;44.644;11.448;2024-01-30T03:41:52;34.70;;;15.60;;
12654;SDS011;6392;44.644;11.448;2024-01-30T03:44:19;24.87;;;15.43;;
12654;SDS011;6392;44.644;11.448;2024-01-30T03:46:46;27.47;;;15.43;;
12654;SDS011;6392;44.644;11.448;2024-01-30T03:49:14;26.67;;;14.67;;
12654;SDS011;6392;44.644;11.448;2024-01-30T03:51:41;27.43;;;14.67;;
12654;SDS011;6392;44.644;11.448;2024-01-30T03:54:08;34.20;;;15.93;;
12654;SDS011;6392;44.644;11.448;2024-01-30T03:56:36;28.13;;;15.93;;
12654;SDS011;6392;44.644;11.448;2024-01-30T03:59:03;27.43;;;15.77;;
12654;SDS011;6392;44.644;11.448;2024-01-30T04:01:30;35.37;;;15.70;;
12654;SDS011;6392;44.644;11.448;2024-01-30T04:03:57;30.10;;;16.07;;
12654;SDS011;6392;44.644;11.448;2024-01-30T04:06:25;26.50;;;15.40;;
12654;SDS011;6392;44.644;11.448;2024-01-30T04:08:53;30.63;;;14.33;;
12654;SDS011;6392;44.644;11.448;2024-01-30T04:11:20;24.37;;;14.77;;
12654;SDS011;6392;44.644;11.448;2024-01-30T04:13:47;28.60;;;15.77;;
12654;SDS011;6392;44.644;11.448;2024-01-30T04:16:19;26.00;;;15.03;;
12654;SDS011;6392;44.644;11.448;2024-01-30T04:18:47;22.43;;;13.83;;
12654;SDS011;6392;44.644;11.448;2024-01-30T04:21:14;28.90;;;15.73;;
12654;SDS011;6392;44.644;11.448;2024-01-30T04:23:43;22.73;;;14.77;;
12654;SDS011;6392;44.644;11.448;2024-01-30T04:26:10;31.10;;;15.07;;
12654;SDS011;6392;44.644;11.448;2024-01-30T04:28:37;26.33;;;14.90;;
12654;SDS011;6392;44.644;11.448;2024-01-30T04:31:04;26.77;;;15.73;;
12654;SDS011;6392;44.644;11.448;2024-01-30T04:33:31;28.47;;;14.87;;
12654;SDS011;6392;44.644;11.448;2024-01-30T04:35:58;26.20;;;14.77;;
12654;SDS011;6392;44.644;11.448;2024-01-30T04:38:25;22.87;;;14.07;;
12654;SDS011;6392;44.644;11.448;2024-01-30T04:40:53;33.37;;;15.50;;
12654;SDS011;6392;44.644;11.448;2024-01-30T04:43:20;23.27;;;14.70;;
12654;SDS011;6392;44.644;11.448;2024-01-30T04:45:47;32.97;;;15.33;;
12654;SDS011;6392;44.644;11.448;2024-01-30T04:48:15;32.17;;;15.63;;
12654;SDS011;6392;44.644;11.448;2024-01-30T04:50:42;27.33;;;15.27;;
12654;SDS011;6392;44.644;11.448;2024-01-30T04:53:09;32.57;;;15.40;;
12654;SDS011;6392;44.644;11.448;2024-01-30T04:55:36;28.77;;;15.23;;
12654;SDS011;6392;44.644;11.448;2024-01-30T04:58:05;30.13;;;15.00;;
12654;SDS011;6392;44.644;11.448;2024-01-30T05:00:32;28.00;;;16.07;;
12654;SDS011;6392;44.644;11.448;2024-01-30T05:02:59;30.13;;;15.83;;
12654;SDS011;6392;44.644;11.448;2024-01-30T05:05:26;30.30;;;15.23;;
12654;SDS011;6392;44.644;11.448;2024-01-30T05:07:53;29.43;;;15.87;;
12654;SDS011;6392;44.644;11.448;2024-01-30T05:10:20;29.00;;;15.33;;
12654;SDS011;6392;44.644;11.448;2024-01-30T05:12:47;26.17;;;14.10;;
12654;SDS011;6392;44.644;11.448;2024-01-30T05:15:15;27.67;;;14.53;;
12654;SDS011;6392;44.644;11.448;2024-01-30T05:17:42;23.43;;;14.57;;
12654;SDS011;6392;44.644;11.448;2024-01-30T05:20:10;27.73;;;16.03;;
12654;SDS011;6392;44.644;11.448;2024-01-30T05:22:38;28.00;;;14.77;;
12654;SDS011;6392;44.644;11.448;2024-01-30T05:25:10;31.13;;;15.03;;
12654;SDS011;6392;44.644;11.448;2024-01-30T05:27:37;25.27;;;16.03;;
12654;SDS011;6392;44.644;11.448;2024-01-30T05:30:04;24.23;;;14.97;;
12654;SDS011;6392;44.644;11.448;2024-01-30T05:32:34;30.73;;;14.90;;
12654;SDS011;6392;44.644;11.448;2024-01-30T05:35:01;28.60;;;14.73;;
12654;SDS011;6392;44.644;11.448;2024-01-30T05:37:28;30.67;;;16.67;;
12654;SDS011;6392;44.644;11.448;2024-01-30T05:39:55;28.27;;;15.87;;
12654;SDS011;6392;44.644;11.448;2024-01-30T05:42:22;29.00;;;15.37;;
12654;SDS011;6392;44.644;11.448;2024-01-30T05:44:49;25.77;;;14.47;;
12654;SDS011;6392;44.644;11.448;2024-01-30T05:47:16;31.87;;;16.03;;
12654;SDS011;6392;44.644;11.448;2024-01-30T05:49:45;30.83;;;15.60;;
12654;SDS011;6392;44.644;11.448;2024-01-30T05:52:12;26.57;;;16.30;;
12654;SDS011;6392;44.644;11.448;2024-01-30T05:54:40;27.90;;;16.97;;
12654;SDS011;6392;44.644;11.448;2024-01-30T05:57:07;27.83;;;15.93;;
12654;SDS011;6392;44.644;11.448;2024-01-30T05:59:34;32.07;;;16.67;;
12654;SDS011;6392;44.644;11.448;2024-01-30T06:02:02;29.67;;;17.03;;
12654;SDS011;6392;44.644;11.448;2024-01-30T06:04:29;29.63;;;16.87;;
12654;SDS011;6392;44.644;11.448;2024-01-30T06:06:58;33.53;;;15.60;;
12654;SDS011;6392;44.644;11.448;2024-01-30T06:09:27;38.60;;;17.13;;
12654;SDS011;6392;44.644;11.448;2024-01-30T06:11:54;40.87;;;17.70;;
12654;SDS011;6392;44.644;11.448;2024-01-30T06:14:21;34.20;;;16.93;;
12654;SDS011;6392;44.644;11.448;2024-01-30T06:16:48;41.10;;;18.90;;
12654;SDS011;6392;44.644;11.448;2024-01-30T06:19:15;28.73;;;16.30;;
12654;SDS011;6392;44.644;11.448;2024-01-30T06:21:42;35.87;;;18.07;;
12654;SDS011;6392;44.644;11.448;2024-01-30T06:24:11;30.17;;;18.20;;
12654;SDS011;6392;44.644;11.448;2024-01-30T06:26:38;35.17;;;17.57;;
12654;SDS011;6392;44.644;11.448;2024-01-30T06:29:06;37.13;;;18.50;;
12654;SDS011;6392;44.644;11.448;2024-01-30T06:31:39;35.00;;;17.90;;
12654;SDS011;6392;44.644;11.448;2024-01-30T06:34:07;34.57;;;19.07;;
12654;SDS011;6392;44.644;11.448;2024-01-30T06:36:34;35.27;;;18.50;;
12654;SDS011;6392;44.644;11.448;2024-01-30T06:39:02;41.73;;;18.87;;
12654;SDS011;6392;44.644;11.448;2024-01-30T06:41:30;35.00;;;17.90;;
12654;SDS011;6392;44.644;11.448;2024-01-30T06:43:57;35.03;;;17.73;;
12654;SDS011;6392;44.644;11.448;2024-01-30T06:46:24;34.77;;;18.80;;
12654;SDS011;6392;44.644;11.448;2024-01-30T06:48:52;39.97;;;19.30;;
12654;SDS011;6392;44.644;11.448;2024-01-30T06:51:19;35.37;;;17.67;;
12654;SDS011;6392;44.644;11.448;2024-01-30T06:53:46;36.37;;;19.50;;
12654;SDS011;6392;44.644;11.448;2024-01-30T06:56:13;36.70;;;18.63;;
12654;SDS011;6392;44.644;11.448;2024-01-30T06:58:43;35.23;;;18.90;;
12654;SDS011;6392;44.644;11.448;2024-01-30T07:01:10;32.90;;;16.77;;
12654;SDS011;6392;44.644;11.448;2024-01-30T07:03:37;36.03;;;19.30;;
12654;SDS011;6392;44.644;11.448;2024-01-30T07:06:04;39.83;;;19.73;;
12654;SDS011;6392;44.644;11.448;2024-01-30T07:08:31;30.63;;;17.33;;
12654;SDS011;6392;44.644;11.448;2024-01-30T07:10:58;36.63;;;19.27;;
12654;SDS011;6392;44.644;11.448;2024-01-30T07:13:25;37.53;;;18.70;;
12654;SDS011;6392;44.644;11.448;2024-01-30T07:15:54;36.10;;;18.47;;
12654;SDS011;6392;44.644;11.448;2024-01-30T07:18:21;44.97;;;19.57;;
12654;SDS011;6392;44.644;11.448;2024-01-30T07:20:49;38.07;;;18.20;;
12654;SDS011;6392;44.644;11.448;2024-01-30T07:23:16;40.40;;;18.67;;
12654;SDS011;6392;44.644;11.448;2024-01-30T07:25:43;40.77;;;18.63;;
12654;SDS011;6392;44.644;11.448;2024-01-30T07:28:10;37.27;;;19.17;;
12654;SDS011;6392;44.644;11.448;2024-01-30T07:30:38;37.83;;;19.07;;
12654;SDS011;6392;44.644;11.448;2024-01-30T07:33:07;39.47;;;19.00;;
12654;SDS011;6392;44.644;11.448;2024-01-30T07:35:34;33.03;;;19.43;;
12654;SDS011;6392;44.644;11.448;2024-01-30T07:38:02;34.90;;;18.43;;
12654;SDS011;6392;44.644;11.448;2024-01-30T07:40:29;35.93;;;17.27;;
12654;SDS011;6392;44.644;11.448;2024-01-30T07:42:58;31.73;;;17.03;;
12654;SDS011;6392;44.644;11.448;2024-01-30T07:45:25;33.00;;;17.10;;
12654;SDS011;6392;44.644;11.448;2024-01-30T07:47:57;34.30;;;16.70;;
12654;SDS011;6392;44.644;11.448;2024-01-30T07:50:26;33.67;;;17.23;;
12654;SDS011;6392;44.644;11.448;2024-01-30T07:52:53;35.53;;;17.97;;
12654;SDS011;6392;44.644;11.448;2024-01-30T07:55:22;35.03;;;18.90;;
12654;SDS011;6392;44.644;11.448;2024-01-30T07:57:49;34.47;;;17.90;;
12654;SDS011;6392;44.644;11.448;2024-01-30T08:00:18;38.13;;;17.50;;
12654;SDS011;6392;44.644;11.448;2024-01-30T08:02:46;36.30;;;17.17;;
12654;SDS011;6392;44.644;11.448;2024-01-30T08:05:13;33.97;;;17.63;;
12654;SDS011;6392;44.644;11.448;2024-01-30T08:07:42;26.17;;;16.20;;
12654;SDS011;6392;44.644;11.448;2024-01-30T08:10:11;34.20;;;15.73;;
12654;SDS011;6392;44.644;11.448;2024-01-30T08:12:38;31.97;;;15.27;;
12654;SDS011;6392;44.644;11.448;2024-01-30T08:15:06;30.20;;;16.17;;
12654;SDS011;6392;44.644;11.448;2024-01-30T08:17:33;35.93;;;17.70;;
12654;SDS011;6392;44.644;11.448;2024-01-30T08:20:00;31.07;;;17.47;;
12654;SDS011;6392;44.644;11.448;2024-01-30T08:22:29;38.27;;;18.53;;
12654;SDS011;6392;44.644;11.448;2024-01-30T08:24:58;36.27;;;17.50;;
12654;SDS011;6392;44.644;11.448;2024-01-30T08:27:25;37.43;;;18.33;;
12654;SDS011;6392;44.644;11.448;2024-01-30T08:29:52;41.83;;;19.00;;
12654;SDS011;6392;44.644;11.448;2024-01-30T08:32:19;39.47;;;19.37;;
12654;SDS011;6392;44.644;11.448;2024-01-30T08:34:46;35.87;;;18.13;;
12654;SDS011;6392;44.644;11.448;2024-01-30T08:37:13;34.90;;;19.30;;
12654;SDS011;6392;44.644;11.448;2024-01-30T08:39:41;35.07;;;20.73;;
12654;SDS011;6392;44.644;11.448;2024-01-30T08:42:10;40.53;;;19.00;;
12654;SDS011;6392;44.644;11.448;2024-01-30T08:44:37;39.60;;;19.77;;
12654;SDS011;6392;44.644;11.448;2024-01-30T08:47:04;42.73;;;21.33;;
12654;SDS011;6392;44.644;11.448;2024-01-30T08:49:32;42.63;;;20.97;;
12654;SDS011;6392;44.644;11.448;2024-01-30T08:51:59;47.60;;;22.57;;
12654;SDS011;6392;44.644;11.448;2024-01-30T08:54:26;43.30;;;22.87;;
12654;SDS011;6392;44.644;11.448;2024-01-30T08:56:53;40.93;;;21.97;;
12654;SDS011;6392;44.644;11.448;2024-01-30T08:59:23;48.33;;;23.00;;
12654;SDS011;6392;44.644;11.448;2024-01-30T09:01:50;42.30;;;21.50;;
12654;SDS011;6392;44.644;11.448;2024-01-30T09:04:20;46.43;;;22.80;;
12654;SDS011;6392;44.644;11.448;2024-01-30T09:06:47;51.77;;;24.97;;
12654;SDS011;6392;44.644;11.448;2024-01-30T09:09:15;48.00;;;22.53;;
12654;SDS011;6392;44.644;11.448;2024-01-30T09:11:42;53.80;;;24.37;;
12654;SDS011;6392;44.644;11.448;2024-01-30T09:14:10;56.00;;;24.57;;
12654;SDS011;6392;44.644;11.448;2024-01-30T09:16:38;45.43;;;23.03;;
12654;SDS011;6392;44.644;11.448;2024-01-30T09:19:05;46.00;;;23.30;;
12654;SDS011;6392;44.644;11.448;2024-01-30T09:21:32;49.60;;;24.23;;
12654;SDS011;6392;44.644;11.448;2024-01-30T09:24:01;40.60;;;21.57;;
12654;SDS011;6392;44.644;11.448;2024-01-30T09:26:29;45.57;;;21.50;;
12654;SDS011;6392;44.644;11.448;2024-01-30T09:28:56;42.50;;;22.30;;
12654;SDS011;6392;44.644;11.448;2024-01-30T09:31:23;39.53;;;21.10;;
12654;SDS011;6392;44.644;11.448;2024-01-30T09:33:52;40.80;;;22.13;;
12654;SDS011;6392;44.644;11.448;2024-01-30T09:36:20;39.10;;;22.10;;
12654;SDS011;6392;44.644;11.448;2024-01-30T09:38:47;41.30;;;21.97;;
12654;SDS011;6392;44.644;11.448;2024-01-30T09:41:14;42.63;;;21.33;;
12654;SDS011;6392;44.644;11.448;2024-01-30T09:43:43;41.40;;;22.47;;
12654;SDS011;6392;44.644;11.448;2024-01-30T09:46:14;45.33;;;23.83;;
12654;SDS011;6392;44.644;11.448;2024-01-30T09:48:43;34.93;;;19.53;;
12654;SDS011;6392;44.644;11.448;2024-01-30T09:51:15;40.67;;;19.80;;
12654;SDS011;6392;44.644;11.448;2024-01-30T09:53:43;43.50;;;22.17;;
12654;SDS011;6392;44.644;11.448;2024-01-30T09:56:10;39.40;;;20.17;;
12654;SDS011;6392;44.644;11.448;2024-01-30T09:58:39;40.43;;;19.97;;
12654;SDS011;6392;44.644;11.448;2024-01-30T10:01:07;34.07;;;18.10;;
12654;SDS011;6392;44.644;11.448;2024-01-30T10:03:34;37.10;;;20.07;;
12654;SDS011;6392;44.644;11.448;2024-01-30T10:06:01;32.93;;;18.43;;
12654;SDS011;6392;44.644;11.448;2024-01-30T10:08:30;31.23;;;17.93;;
12654;SDS011;6392;44.644;11.448;2024-01-30T10:10:57;30.60;;;17.17;;
12654;SDS011;6392;44.644;11.448;2024-01-30T10:13:24;26.27;;;17.03;;
12654;SDS011;6392;44.644;11.448;2024-01-30T10:15:52;33.30;;;17.70;;
12654;SDS011;6392;44.644;11.448;2024-01-30T10:18:20;28.83;;;15.90;;
12654;SDS011;6392;44.644;11.448;2024-01-30T10:20:48;30.90;;;17.20;;
12654;SDS011;6392;44.644;11.448;2024-01-30T10:23:16;31.00;;;17.30;;
12654;SDS011;6392;44.644;11.448;2024-01-30T10:25:45;31.20;;;17.80;;
12654;SDS011;6392;44.644;11.448;2024-01-30T10:28:13;30.73;;;16.53;;
12654;SDS011;6392;44.644;11.448;2024-01-30T10:30:40;29.53;;;17.20;;
12654;SDS011;6392;44.644;11.448;2024-01-30T10:33:07;30.23;;;18.37;;
12654;SDS011;6392;44.644;11.448;2024-01-30T10:35:34;28.73;;;18.03;;
12654;SDS011;6392;44.644;11.448;2024-01-30T10:38:01;26.07;;;15.53;;
12654;SDS011;6392;44.644;11.448;2024-01-30T10:40:29;26.13;;;15.47;;
12654;SDS011;6392;44.644;11.448;2024-01-30T10:42:59;27.17;;;17.17;;
12654;SDS011;6392;44.644;11.448;2024-01-30T10:45:28;28.03;;;16.27;;
12654;SDS011;6392;44.644;11.448;2024-01-30T10:47:56;29.43;;;18.20;;
12654;SDS011;6392;44.644;11.448;2024-01-30T10:50:25;30.03;;;18.43;;
12654;SDS011;6392;44.644;11.448;2024-01-30T10:52:54;27.47;;;17.93;;
12654;SDS011;6392;44.644;11.448;2024-01-30T10:55:22;28.43;;;17.63;;
12654;SDS011;6392;44.644;11.448;2024-01-30T10:57:50;31.10;;;18.27;;
12654;SDS011;6392;44.644;11.448;2024-01-30T11:00:19;33.30;;;18.73;;
12654;SDS011;6392;44.644;11.448;2024-01-30T11:02:49;29.07;;;17.17;;
12654;SDS011;6392;44.644;11.448;2024-01-30T11:05:23;34.33;;;18.77;;
12654;SDS011;6392;44.644;11.448;2024-01-30T11:07:51;33.07;;;18.63;;
12654;SDS011;6392;44.644;11.448;2024-01-30T11:10:18;32.13;;;18.87;;
12654;SDS011;6392;44.644;11.448;2024-01-30T11:12:46;33.37;;;19.03;;
12654;SDS011;6392;44.644;11.448;2024-01-30T11:15:15;32.37;;;20.10;;
12654;SDS011;6392;44.644;11.448;2024-01-30T11:17:47;33.37;;;19.50;;
12654;SDS011;6392;44.644;11.448;2024-01-30T11:20:19;34.57;;;19.27;;
12654;SDS011;6392;44.644;11.448;2024-01-30T11:22:48;39.73;;;21.50;;
12654;SDS011;6392;44.644;11.448;2024-01-30T11:25:17;29.40;;;17.47;;
12654;SDS011;6392;44.644;11.448;2024-01-30T11:27:46;35.47;;;19.60;;
12654;SDS011;6392;44.644;11.448;2024-01-30T11:30:22;34.83;;;21.00;;
12654;SDS011;6392;44.644;11.448;2024-01-30T11:33:04;39.20;;;21.90;;
12654;SDS011;6392;44.644;11.448;2024-01-30T11:35:34;34.57;;;20.13;;
12654;SDS011;6392;44.644;11.448;2024-01-30T11:38:02;33.77;;;19.73;;
12654;SDS011;6392;44.644;11.448;2024-01-30T11:40:31;35.17;;;20.87;;
12654;SDS011;6392;44.644;11.448;2024-01-30T11:43:00;34.00;;;20.33;;
12654;SDS011;6392;44.644;11.448;2024-01-30T11:45:28;35.50;;;21.10;;
12654;SDS011;6392;44.644;11.448;2024-01-30T11:47:55;35.80;;;21.60;;
12654;SDS011;6392;44.644;11.448;2024-01-30T11:50:26;35.07;;;21.77;;
12654;SDS011;6392;44.644;11.448;2024-01-30T11:52:54;37.23;;;23.40;;
12654;SDS011;6392;44.644;11.448;2024-01-30T11:55:23;38.33;;;24.67;;
12654;SDS011;6392;44.644;11.448;2024-01-30T11:57:50;39.03;;;23.23;;
12654;SDS011;6392;44.644;11.448;2024-01-30T12:00:21;38.27;;;24.80;;
12654;SDS011;6392;44.644;11.448;2024-01-30T12:02:51;39.53;;;23.63;;
12654;SDS011;6392;44.644;11.448;2024-01-30T12:05:21;40.67;;;24.97;;
12654;SDS011;6392;44.644;11.448;2024-01-30T12:07:50;42.53;;;25.27;;
12654;SDS011;6392;44.644;11.448;2024-01-30T12:10:17;34.90;;;21.83;;
12654;SDS011;6392;44.644;11.448;2024-01-30T12:12:45;37.03;;;22.27;;
12654;SDS011;6392;44.644;11.448;2024-01-30T12:15:14;32.10;;;21.57;;
12654;SDS011;6392;44.644;11.448;2024-01-30T12:17:42;31.33;;;21.17;;
12654;SDS011;6392;44.644;11.448;2024-01-30T12:20:09;35.30;;;22.70;;
12654;SDS011;6392;44.644;11.448;2024-01-30T12:22:37;35.80;;;21.70;;
12654;SDS011;6392;44.644;11.448;2024-01-30T12:25:08;35.17;;;22.80;;
12654;SDS011;6392;44.644;11.448;2024-01-30T12:27:36;37.93;;;23.00;;
12654;SDS011;6392;44.644;11.448;2024-01-30T12:30:05;36.30;;;21.53;;
12654;SDS011;6392;44.644;11.448;2024-01-30T12:32:34;34.87;;;21.57;;
12654;SDS011;6392;44.644;11.448;2024-01-30T12:35:02;41.77;;;23.00;;
12654;SDS011;6392;44.644;11.448;2024-01-30T12:37:29;38.07;;;23.37;;
12654;SDS011;6392;44.644;11.448;2024-01-30T12:39:56;39.20;;;22.97;;
12654;SDS011;6392;44.644;11.448;2024-01-30T12:42:26;38.23;;;21.93;;
12654;SDS011;6392;44.644;11.448;2024-01-30T12:44:54;35.33;;;21.63;;
12654;SDS011;6392;44.644;11.448;2024-01-30T12:47:23;35.53;;;22.50;;
12654;SDS011;6392;44.644;11.448;2024-01-30T12:49:50;37.70;;;24.23;;
12654;SDS011;6392;44.644;11.448;2024-01-30T12:52:18;34.93;;;22.60;;
12654;SDS011;6392;44.644;11.448;2024-01-30T12:54:46;35.30;;;21.67;;
12654;SDS011;6392;44.644;11.448;2024-01-30T12:57:13;37.10;;;22.77;;
12654;SDS011;6392;44.644;11.448;2024-01-30T12:59:43;34.13;;;21.87;;
12654;SDS011;6392;44.644;11.448;2024-01-30T13:02:11;35.63;;;23.27;;
12654;SDS011;6392;44.644;11.448;2024-01-30T13:04:39;34.07;;;21.90;;
12654;SDS011;6392;44.644;11.448;2024-01-30T13:07:07;35.00;;;21.57;;
12654;SDS011;6392;44.644;11.448;2024-01-30T13:09:34;33.57;;;23.50;;
12654;SDS011;6392;44.644;11.448;2024-01-30T13:12:01;31.63;;;21.20;;
12654;SDS011;6392;44.644;11.448;2024-01-30T13:14:28;34.70;;;22.17;;
12654;SDS011;6392;44.644;11.448;2024-01-30T13:16:57;38.07;;;22.97;;
12654;SDS011;6392;44.644;11.448;2024-01-30T13:19:24;32.50;;;21.60;;
12654;SDS011;6392;44.644;11.448;2024-01-30T13:21:51;33.00;;;21.27;;
12654;SDS011;6392;44.644;11.448;2024-01-30T13:24:18;32.60;;;22.00;;
12654;SDS011;6392;44.644;11.448;2024-01-30T13:26:46;29.57;;;20.23;;
12654;SDS011;6392;44.644;11.448;2024-01-30T13:29:14;32.00;;;20.60;;
12654;SDS011;6392;44.644;11.448;2024-01-30T13:31:41;30.53;;;19.90;;
12654;SDS011;6392;44.644;11.448;2024-01-30T13:34:10;31.33;;;21.07;;
12654;SDS011;6392;44.644;11.448;2024-01-30T13:36:38;28.50;;;20.40;;
12654;SDS011;6392;44.644;11.448;2024-01-30T13:39:06;32.13;;;20.73;;
12654;SDS011;6392;44.644;11.448;2024-01-30T13:41:36;31.93;;;21.50;;
12654;SDS011;6392;44.644;11.448;2024-01-30T13:44:03;31.33;;;20.77;;
12654;SDS011;6392;44.644;11.448;2024-01-30T13:46:30;31.37;;;21.63;;
12654;SDS011;6392;44.644;11.448;2024-01-30T13:48:57;32.93;;;22.00;;
12654;SDS011;6392;44.644;11.448;2024-01-30T13:51:26;32.67;;;21.50;;
12654;SDS011;6392;44.644;11.448;2024-01-30T13:53:53;31.07;;;20.37;;
12654;SDS011;6392;44.644;11.448;2024-01-30T13:56:20;30.07;;;20.87;;
12654;SDS011;6392;44.644;11.448;2024-01-30T13:58:47;32.73;;;20.93;;
12654;SDS011;6392;44.644;11.448;2024-01-30T14:01:15;32.50;;;21.10;;
12654;SDS011;6392;44.644;11.448;2024-01-30T14:03:42;28.53;;;19.63;;
12654;SDS011;6392;44.644;11.448;2024-01-30T14:06:09;30.53;;;20.23;;
12654;SDS011;6392;44.644;11.448;2024-01-30T14:08:38;32.13;;;21.00;;
12654;SDS011;6392;44.644;11.448;2024-01-30T14:11:05;31.57;;;22.30;;
12654;SDS011;6392;44.644;11.448;2024-01-30T14:13:32;29.63;;;21.57;;
12654;SDS011;6392;44.644;11.448;2024-01-30T14:15:59;29.13;;;20.03;;
12654;SDS011;6392;44.644;11.448;2024-01-30T14:18:26;30.17;;;18.90;;
12654;SDS011;6392;44.644;11.448;2024-01-30T14:20:53;27.00;;;21.10;;
12654;SDS011;6392;44.644;11.448;2024-01-30T14:23:21;26.17;;;18.60;;